Enter the Airport ICAO Code

Search by Airport or City

Current Weather

LEVX | Vigo–Peinador Airport

Vigo, Galicia, Spain

Last Update 30 Minutes Ago

Clear Sky

Temperature of 31 ºC

Light Winds from Variable Directions

Temperature

31 ºC

Dew Point Temperature

19 ºC

Relative Humidity

49.09 %

Wind Direction

Variable

Wind Velocity

4 km/h (02 kt)

Gusts

None

Visibility

No Significant Reductions

Sea Level Pressure

1020 hPa (Hectopascals)

Layers of Clouds

None

METAR LEVX 131200Z VRB02KT CAVOK 31/19 Q1020 NOSIG

Weather Forecast

LEVX | Vigo–Peinador Airport

Vigo, Galicia, Spain

Forecast valid for the next 24 Hours

From now on it is expected:

Sky with Few Clouds

Light to Moderate Winds from North

Maximum Temperature

33 ºC in 0 Hours

Minimum Temperature

17 ºC in 18 Hours

TAF LEVX 131100Z 1312/1412 01009KT 9999 FEW040 TX33/1312Z TN17/1406Z